• Join FlightAware (Why Join?)
  • Login
  • US Flag 
03:44AM EDT


 

Airport Tracker/Info


-or-


 

Live Flight TrackerFlight Track Log ✈ SWA183 ✈ 14-Jun-2013 ✈ KMDW - KMSY

Flight Track Log - Related Links

Times and Time Zones

All times are in EDT time to prevent confusion due to time zone crossing. See the SWA183 flight status page for this flight to view local times or setup timezone preferences in your user account.

Time Position Orientation Groundspeed Altitude Reporting Facility
EDT Latitude Longitude Course Direction KTS MPH feet Rate Location/Type
10:08AM 41.8167 -87.7333 197° South 216 249 2,900  Level Chicago TRACON
10:09AM 41.8081 -87.7169 125° Southeast 232 267 3,200 1,260 Climbing Chicago Center
10:10AM 41.7289 -87.7161 180° South 239 275 5,000 960 Climbing Chicago Center
10:11AM 41.6597 -87.7228 184° South 258 297 5,200 1,860 Climbing Chicago Center
10:12AM 41.5994 -87.7903 220° Southwest 282 325 8,900 3,240 Climbing Chicago Center
10:13AM 41.5383 -87.8664 223° Southwest 298 343 11,900 2,220 Climbing Chicago Center
10:14AM 41.1569 -88.0972 197° South  Level FlightAware Approximate
10:14AM 41.4700 -87.9511 223° Southwest 332 382 13,500  Level Chicago Center
10:15AM 41.3922 -88.0450 222° Southwest 356 410 16,800 2,880 Climbing Chicago Center
10:16AM 41.2775 -88.0733 191° South 391 450 19,500 2,220 Climbing Chicago Center
10:17AM 41.1694 -88.1083 194° South 400 460 21,500 1,680 Climbing Chicago Center
10:18AM 41.0286 -88.1478 192° South 421 484 23,000 1,380 Climbing Chicago Center
10:19AM 40.9114 -88.1792 191° South 428 493 24,400 1,680 Climbing Chicago Center
10:20AM 40.7900 -88.2122 192° South 442 509 26,600 1,680 Climbing Chicago Center
10:21AM 40.6628 -88.2408 190° South 460 529 27,900 1,380 Climbing Chicago Center
10:22AM 40.5286 -88.2739 191° South 485 558 29,500 1,800 Climbing Chicago Center
10:24AM 40.3647 -88.3139 191° South 501 577 31,700 2,160 Climbing Chicago Center
10:25AM 40.2289 -88.3453 190° South 499 574 34,000 1,980 Climbing Chicago Center
10:26AM 40.0892 -88.3794 191° South 487 560 35,800 1,680 Climbing Chicago Center
10:27AM 39.9569 -88.4128 191° South 481 554 37,500 1,020 Climbing Chicago Center
10:28AM 39.8269 -88.4431 190° South 475 547 38,000 240 Climbing Chicago Center
10:29AM 39.7206 -88.4686 190° South 477 549 38,000  Level Kansas City Center
10:30AM 39.5719 -88.5033 190° South 483 556 38,000  Level Kansas City Center
10:31AM 39.4383 -88.5369 191° South 485 558 38,000  Level Kansas City Center
10:32AM 39.3081 -88.5656 190° South 480 552 38,000  Level Kansas City Center
10:33AM 39.1508 -88.6025 190° South 478 550 38,000  Level Kansas City Center
10:34AM 39.0283 -88.6314 190° South 478 550 38,000  Level Kansas City Center
10:35AM 38.8981 -88.6617 190° South 477 549 38,000  Level Kansas City Center
10:36AM 38.7667 -88.6922 190° South 477 549 38,000  Level Kansas City Center
10:37AM 38.6350 -88.7219 190° South 478 550 38,000  Level Kansas City Center
10:38AM 38.4697 -88.7611 191° South 482 555 38,000  Level Kansas City Center
10:39AM 38.3394 -88.7911 190° South 479 551 38,000  Level Kansas City Center
10:40AM 38.2147 -88.8172 189° South 476 548 38,000  Level Kansas City Center
10:41AM 38.0858 -88.8472 190° South 473 544 38,000  Level Kansas City Center
10:42AM 37.9564 -88.8753 190° South 472 543 38,000  Level Kansas City Center
10:43AM 37.8275 -88.9047 190° South 471 542 38,000  Level Kansas City Center
10:44AM 37.6878 -88.9358 190° South 464 534 38,000  Level Kansas City Center
10:45AM 37.5597 -88.9653 190° South 466 536 38,000  Level Kansas City Center
10:46AM 37.4319 -88.9936 190° South 465 535 38,000  Level Kansas City Center
10:47AM 37.3122 -89.0244 192° South 466 536 38,000  Level Memphis Center
10:48AM 37.1833 -89.0550 191° South 466 536 38,000  Level Memphis Center
10:49AM 37.0586 -89.0806 189° South 466 536 38,000  Level Memphis Center
10:50AM 36.9297 -89.1086 190° South 466 536 38,000  Level Memphis Center
10:51AM 36.7925 -89.1367 189° South 466 536 38,000 120 Level Memphis Center
10:52AM 36.6614 -89.1644 190° South 471 542 38,300 600 Climbing Memphis Center
10:53AM 36.5303 -89.1922 190° South 471 542 39,300 840 Climbing Memphis Center
10:54AM 36.3972 -89.2147 188° South 486 559 40,000 300 Climbing Memphis Center
10:55AM 36.2600 -89.2475 191° South 499 574 40,000  Level Memphis Center
10:56AM 36.1331 -89.2775 191° South 493 567 40,000  Level Memphis Center
10:57AM 36.0206 -89.3022 190° South 478 550 40,000  Level Memphis Center
10:58AM 35.8936 -89.3294 190° South 467 537 40,000  Level Memphis Center
10:59AM 35.7667 -89.3567 190° South 467 537 40,000  Level Memphis Center
11:00AM 35.6356 -89.3864 190° South 447 514 40,000  Level Memphis Center
11:01AM 35.5044 -89.4133 189° South 456 525 40,000  Level Memphis Center
11:02AM 35.3772 -89.4378 189° South 469 540 40,000  Level Memphis Center
11:03AM 35.2503 -89.4647 190° South 469 540 40,000  Level Memphis Center
11:04AM 35.1211 -89.4889 189° South 469 540 40,000  Level Memphis Center
11:05AM 34.9919 -89.5156 190° South 469 540 40,000  Level Memphis Center
11:06AM 34.8753 -89.5344 188° South 469 540 40,000  Level Memphis Center
11:07AM 34.7419 -89.5636 190° South 475 547 40,000  Level Memphis Center
11:08AM 34.6128 -89.5950 191° South 480 552 40,000  Level Memphis Center
11:09AM 34.4731 -89.6264 190° South 470 541 40,000  Level Memphis Center
11:10AM 34.3461 -89.6528 190° South 465 535 40,000  Level Memphis Center
11:11AM 34.2208 -89.6789 190° South 465 535 40,000  Level Memphis Center
11:12AM 34.0936 -89.7050 190° South 470 541 40,000  Level Memphis Center
11:13AM 33.9667 -89.7311 190° South 470 541 40,000  Level Memphis Center
11:14AM 33.8372 -89.7569 189° South 470 541 40,000  Level Memphis Center
11:15AM 33.7142 -89.7853 191° South 459 528 40,000  Level Memphis Center
11:16AM 33.5872 -89.8111 190° South 459 528 40,000  Level Memphis Center
11:17AM 33.4578 -89.8392 190° South 472 543 40,000  Level Memphis Center
11:18AM 33.3306 -89.8625 189° South 472 543 40,000  Level Memphis Center
11:19AM 33.2014 -89.8906 190° South 467 537 40,000  Level Memphis Center
11:20AM 33.0719 -89.9183 190° South 467 537 40,000  Level Memphis Center
11:21AM 32.9508 -89.9339 186° South 481 554 40,000  Level Memphis Center
11:22AM 32.8175 -89.9692 193° South 486 559 40,000  Level Memphis Center
11:23AM 32.6922 -89.9894 188° South 481 554 40,000 -240 Level Memphis Center
11:24AM 32.5669 -90.0147 190° South 470 541 39,600 -720 Descending Memphis Center
11:25AM 32.4397 -90.0372 188° South 465 535 38,600 -960 Descending Memphis Center
11:26AM 32.3144 -90.0622 190° South 465 535 37,700 -1,260 Descending Memphis Center
11:27AM 32.1936 -90.0872 190° South 460 529 36,100 -1,320 Descending Memphis Center
11:28AM 32.0578 -90.1122 189° South 454 522 35,100 -1,980 Descending Memphis Center
11:29AM 31.9189 -90.1392 189° South 452 520 31,800 -2,640 Descending Houston Center
11:30AM 31.7922 -90.1636 189° South 461 531 29,300 -2,100 Descending Houston Center
11:31AM 31.6706 -90.1875 189° South 447 514 27,500 -1,380 Descending Houston Center
11:32AM 31.5522 -90.2106 189° South 435 501 26,500 -1,080 Descending Houston Center
11:33AM 31.4119 -90.2383 190° South 428 493 25,300 -1,080 Descending Houston Center
11:34AM 31.2950 -90.2581 188° South 425 489 24,300 -1,500 Descending Houston Center
11:35AM 31.1786 -90.2489 176° South 422 486 22,300 -2,040 Descending Houston Center
11:36AM 31.0672 -90.2411 177° South 406 467 20,200 -1,980 Descending Houston Center
11:38AM 30.9594 -90.2331 176° South 391 450 18,200 -2,160 Descending Houston Center
11:38AM 30.8819 -90.2269 176° South 382 440 16,800 -2,460 Descending Houston Center
11:39AM 30.8331 -90.2239 177° South 381 438 15,700 -2,040 Descending Houston Center
11:40AM 30.7314 -90.2119 174° South 371 427 13,700 -1,980 Descending Houston Center
11:41AM 30.6094 -90.1944 173° South 361 415 11,400 -1,560 Descending Houston Center
11:42AM 30.5344 -90.1844 173° South 358 412 10,500 -840 Descending Houston Center
11:43AM 30.4453 -90.1697 172° South 338 389 9,900 -1,020 Descending Houston Center
11:44AM 30.3428 -90.1536 172° South 321 369 8,500 -1,260 Descending Houston Center
11:45AM 30.2589 -90.1375 171° South 313 360 7,300 -1,260 Descending Houston Center
11:46AM 30.1783 -90.1264 173° South 302 348 5,900 -1,440 Descending Houston Center
11:46AM 30.1478 -90.1317 188° South 290 334 5,500 -1,380 Descending Houston Center
11:47AM 30.1011 -90.1428 192° South 288 331 4,500 -1,440 Descending Houston Center
11:47AM 30.0647 -90.1494 189° South 282 325 3,900 -1,260 Descending Houston Center
11:48AM 30.0236 -90.1569 189° South 284 327 3,200 -540 Descending Houston Center
11:49AM 29.9400 -90.1689 187° South 230 265 3,000 -480 Descending Houston Center
11:50AM 29.8969 -90.1972 210° Southwest 185 213 2,300 -780 Descending Houston Center
11:51AM 29.9156 -90.2564 290° West 150 173 1,400 -720 Descending Houston Center
11:52AM 29.9439 -90.2658 344° North 160 184 800 -480 Descending Houston Center
11:53AM 29.9778 -90.2561 14° North 150 173 500 -300 Descending Houston Center